<?xml version="1.0" encoding="UTF-8" standalone="no" ?>
<gpx xmlns="http://www.topografix.com/GPX/1/1" xmlns:xsi="http://www.w3.org/2001/XMLSchema-instance" xsi:schemaLocation="http://www.topografix.com/GPX/1/1 http://www.topografix.com/GPX/1/1/gpx.xsd" version="1.1" creator="VisuGPX - https://www.visugpx.com">
  <metadata>
    <name>Canal du midi : Carcassonne - Beziers</name>
  </metadata>
  <trk>
    <name><![CDATA[Canal du midi : Carcassonne - Beziers]]></name>
    <extensions>
      <line xmlns="http://www.topografix.com/GPX/gpx_style/0/2">
        <color>0000FF</color>
        <width>4</width>
      </line>
    </extensions>
    <trkseg>
      <trkpt lat="43.21739" lon="2.35047">
        <ele>107</ele>
        <time>2022-05-19T06:30:25.000Z</time>
      </trkpt>
      <trkpt lat="43.21758" lon="2.35219">
        <ele>105.3</ele>
        <time>2022-05-19T06:30:43.541Z</time>
      </trkpt>
      <trkpt lat="43.21861" lon="2.35378">
        <ele>104.4</ele>
        <time>2022-05-19T06:31:12.930Z</time>
      </trkpt>
      <trkpt lat="43.2223" lon="2.35657">
        <ele>106.9</ele>
        <time>2022-05-19T06:32:44.895Z</time>
      </trkpt>
      <trkpt lat="43.22342" lon="2.35983">
        <ele>106.6</ele>
        <time>2022-05-19T06:33:38.176Z</time>
      </trkpt>
      <trkpt lat="43.22418" lon="2.36343">
        <ele>105.8</ele>
        <time>2022-05-19T06:34:32.132Z</time>
      </trkpt>
      <trkpt lat="43.22405" lon="2.36622">
        <ele>107.2</ele>
        <time>2022-05-19T06:35:17.008Z</time>
      </trkpt>
      <trkpt lat="43.22446" lon="2.36768">
        <ele>105.2</ele>
        <time>2022-05-19T06:35:32.851Z</time>
      </trkpt>
      <trkpt lat="43.22508" lon="2.36811">
        <ele>105.9</ele>
        <time>2022-05-19T06:35:48.649Z</time>
      </trkpt>
      <trkpt lat="43.22724" lon="2.36893">
        <ele>106.1</ele>
        <time>2022-05-19T06:36:35.292Z</time>
      </trkpt>
      <trkpt lat="43.22774" lon="2.36987">
        <ele>106.7</ele>
        <time>2022-05-19T06:36:54.009Z</time>
      </trkpt>
      <trkpt lat="43.22815" lon="2.37305">
        <ele>107.1</ele>
        <time>2022-05-19T06:37:43.350Z</time>
      </trkpt>
      <trkpt lat="43.22877" lon="2.37455">
        <ele>105.2</ele>
        <time>2022-05-19T06:38:01.336Z</time>
      </trkpt>
      <trkpt lat="43.23012" lon="2.37532">
        <ele>104.8</ele>
        <time>2022-05-19T06:38:30.299Z</time>
      </trkpt>
      <trkpt lat="43.23715" lon="2.37227">
        <ele>101.7</ele>
        <time>2022-05-19T06:40:53.280Z</time>
      </trkpt>
      <trkpt lat="43.23862" lon="2.37416">
        <ele>95</ele>
        <time>2022-05-19T06:41:16.801Z</time>
      </trkpt>
      <trkpt lat="43.24084" lon="2.37991">
        <ele>95.4</ele>
        <time>2022-05-19T06:42:55.423Z</time>
      </trkpt>
      <trkpt lat="43.24347" lon="2.38399">
        <ele>98.7</ele>
        <time>2022-05-19T06:44:24.100Z</time>
      </trkpt>
      <trkpt lat="43.24356" lon="2.38451">
        <ele>96.2</ele>
        <time>2022-05-19T06:44:27.560Z</time>
      </trkpt>
      <trkpt lat="43.24365" lon="2.38717">
        <ele>94.5</ele>
        <time>2022-05-19T06:44:57.709Z</time>
      </trkpt>
      <trkpt lat="43.24275" lon="2.38923">
        <ele>94.5</ele>
        <time>2022-05-19T06:45:33.829Z</time>
      </trkpt>
      <trkpt lat="43.2424" lon="2.39111">
        <ele>99.1</ele>
        <time>2022-05-19T06:46:15.399Z</time>
      </trkpt>
      <trkpt lat="43.24268" lon="2.3942">
        <ele>93.6</ele>
        <time>2022-05-19T06:46:44.556Z</time>
      </trkpt>
      <trkpt lat="43.24406" lon="2.39618">
        <ele>93.6</ele>
        <time>2022-05-19T06:47:25.762Z</time>
      </trkpt>
      <trkpt lat="43.24268" lon="2.40365">
        <ele>93.6</ele>
        <time>2022-05-19T06:49:21.643Z</time>
      </trkpt>
      <trkpt lat="43.24265" lon="2.40562">
        <ele>95</ele>
        <time>2022-05-19T06:49:54.179Z</time>
      </trkpt>
      <trkpt lat="43.24197" lon="2.40661">
        <ele>94.1</ele>
        <time>2022-05-19T06:50:09.520Z</time>
      </trkpt>
      <trkpt lat="43.24072" lon="2.40755">
        <ele>94.8</ele>
        <time>2022-05-19T06:50:40.326Z</time>
      </trkpt>
      <trkpt lat="43.23843" lon="2.4112">
        <ele>95.5</ele>
        <time>2022-05-19T06:51:54.112Z</time>
      </trkpt>
      <trkpt lat="43.23512" lon="2.41377">
        <ele>91.2</ele>
        <time>2022-05-19T06:52:51.256Z</time>
      </trkpt>
      <trkpt lat="43.23356" lon="2.41519">
        <ele>90.7</ele>
        <time>2022-05-19T06:53:28.376Z</time>
      </trkpt>
      <trkpt lat="43.23199" lon="2.41583">
        <ele>90</ele>
        <time>2022-05-19T06:54:00.106Z</time>
      </trkpt>
      <trkpt lat="43.23096" lon="2.4157">
        <ele>91</ele>
        <time>2022-05-19T06:54:23.532Z</time>
      </trkpt>
      <trkpt lat="43.2303" lon="2.41489">
        <ele>90.7</ele>
        <time>2022-05-19T06:54:40.906Z</time>
      </trkpt>
      <trkpt lat="43.22933" lon="2.41266">
        <ele>89.5</ele>
        <time>2022-05-19T06:55:16.509Z</time>
      </trkpt>
      <trkpt lat="43.22899" lon="2.41214">
        <ele>88.7</ele>
        <time>2022-05-19T06:55:23.742Z</time>
      </trkpt>
      <trkpt lat="43.2278" lon="2.41214">
        <ele>87.6</ele>
        <time>2022-05-19T06:55:42.118Z</time>
      </trkpt>
      <trkpt lat="43.22611" lon="2.41266">
        <ele>87.4</ele>
        <time>2022-05-19T06:56:17.248Z</time>
      </trkpt>
      <trkpt lat="43.22436" lon="2.41377">
        <ele>87.7</ele>
        <time>2022-05-19T06:56:57.619Z</time>
      </trkpt>
      <trkpt lat="43.22167" lon="2.41746">
        <ele>87</ele>
        <time>2022-05-19T06:58:13.978Z</time>
      </trkpt>
      <trkpt lat="43.2207" lon="2.41905">
        <ele>89.7</ele>
        <time>2022-05-19T06:58:51.274Z</time>
      </trkpt>
      <trkpt lat="43.21636" lon="2.42249">
        <ele>88</ele>
        <time>2022-05-19T07:00:29.622Z</time>
      </trkpt>
      <trkpt lat="43.21601" lon="2.42334">
        <ele>87</ele>
        <time>2022-05-19T07:00:39.943Z</time>
      </trkpt>
      <trkpt lat="43.21598" lon="2.42553">
        <ele>88.4</ele>
        <time>2022-05-19T07:01:15.773Z</time>
      </trkpt>
      <trkpt lat="43.21545" lon="2.42854">
        <ele>87.9</ele>
        <time>2022-05-19T07:02:00.828Z</time>
      </trkpt>
      <trkpt lat="43.2149" lon="2.43017">
        <ele>88.7</ele>
        <time>2022-05-19T07:02:29.452Z</time>
      </trkpt>
      <trkpt lat="43.21428" lon="2.43133">
        <ele>88.2</ele>
        <time>2022-05-19T07:02:49.620Z</time>
      </trkpt>
      <trkpt lat="43.21396" lon="2.43283">
        <ele>87.8</ele>
        <time>2022-05-19T07:03:11.932Z</time>
      </trkpt>
      <trkpt lat="43.21403" lon="2.43433">
        <ele>88.4</ele>
        <time>2022-05-19T07:03:35.739Z</time>
      </trkpt>
      <trkpt lat="43.21471" lon="2.43583">
        <ele>87</ele>
        <time>2022-05-19T07:03:55.194Z</time>
      </trkpt>
      <trkpt lat="43.21446" lon="2.43836">
        <ele>86.9</ele>
        <time>2022-05-19T07:04:33.290Z</time>
      </trkpt>
      <trkpt lat="43.21462" lon="2.44017">
        <ele>88.2</ele>
        <time>2022-05-19T07:05:03.419Z</time>
      </trkpt>
      <trkpt lat="43.21149" lon="2.44236">
        <ele>89.7</ele>
        <time>2022-05-19T07:06:18.897Z</time>
      </trkpt>
      <trkpt lat="43.21109" lon="2.44296">
        <ele>88.9</ele>
        <time>2022-05-19T07:06:27.555Z</time>
      </trkpt>
      <trkpt lat="43.21055" lon="2.44313">
        <ele>87.6</ele>
        <time>2022-05-19T07:06:34.739Z</time>
      </trkpt>
      <trkpt lat="43.20999" lon="2.44317">
        <ele>88.1</ele>
        <time>2022-05-19T07:06:47.344Z</time>
      </trkpt>
      <trkpt lat="43.20993" lon="2.4448">
        <ele>87.8</ele>
        <time>2022-05-19T07:07:10.985Z</time>
      </trkpt>
      <trkpt lat="43.20918" lon="2.44665">
        <ele>87.3</ele>
        <time>2022-05-19T07:07:41.328Z</time>
      </trkpt>
      <trkpt lat="43.20808" lon="2.44849">
        <ele>87.8</ele>
        <time>2022-05-19T07:08:18.104Z</time>
      </trkpt>
      <trkpt lat="43.20733" lon="2.44901">
        <ele>87.8</ele>
        <time>2022-05-19T07:08:35.450Z</time>
      </trkpt>
      <trkpt lat="43.20571" lon="2.44969">
        <ele>80.8</ele>
        <time>2022-05-19T07:08:53.739Z</time>
      </trkpt>
      <trkpt lat="43.20505" lon="2.45072">
        <ele>81.4</ele>
        <time>2022-05-19T07:09:15.574Z</time>
      </trkpt>
      <trkpt lat="43.20455" lon="2.4521">
        <ele>82.7</ele>
        <time>2022-05-19T07:09:41.511Z</time>
      </trkpt>
      <trkpt lat="43.20436" lon="2.45351">
        <ele>83.4</ele>
        <time>2022-05-19T07:10:04.496Z</time>
      </trkpt>
      <trkpt lat="43.20273" lon="2.45609">
        <ele>80.6</ele>
        <time>2022-05-19T07:10:41.920Z</time>
      </trkpt>
      <trkpt lat="43.20029" lon="2.45952">
        <ele>80.3</ele>
        <time>2022-05-19T07:11:53.099Z</time>
      </trkpt>
      <trkpt lat="43.19857" lon="2.46274">
        <ele>80.1</ele>
        <time>2022-05-19T07:12:52.543Z</time>
      </trkpt>
      <trkpt lat="43.19817" lon="2.46428">
        <ele>80.5</ele>
        <time>2022-05-19T07:13:17.924Z</time>
      </trkpt>
      <trkpt lat="43.19804" lon="2.46755">
        <ele>79.1</ele>
        <time>2022-05-19T07:14:03.141Z</time>
      </trkpt>
      <trkpt lat="43.1976" lon="2.47145">
        <ele>79.8</ele>
        <time>2022-05-19T07:15:03.881Z</time>
      </trkpt>
      <trkpt lat="43.19673" lon="2.4757">
        <ele>79.2</ele>
        <time>2022-05-19T07:16:08.465Z</time>
      </trkpt>
      <trkpt lat="43.19548" lon="2.48021">
        <ele>79.9</ele>
        <time>2022-05-19T07:17:22.421Z</time>
      </trkpt>
      <trkpt lat="43.19488" lon="2.48119">
        <ele>80.6</ele>
        <time>2022-05-19T07:17:43.101Z</time>
      </trkpt>
      <trkpt lat="43.19444" lon="2.48218">
        <ele>79.1</ele>
        <time>2022-05-19T07:17:54.818Z</time>
      </trkpt>
      <trkpt lat="43.19469" lon="2.48643">
        <ele>80.9</ele>
        <time>2022-05-19T07:19:02.578Z</time>
      </trkpt>
      <trkpt lat="43.19438" lon="2.48853">
        <ele>80.5</ele>
        <time>2022-05-19T07:19:33.604Z</time>
      </trkpt>
      <trkpt lat="43.19366" lon="2.49029">
        <ele>79.2</ele>
        <time>2022-05-19T07:19:56.450Z</time>
      </trkpt>
      <trkpt lat="43.19466" lon="2.49257">
        <ele>80.6</ele>
        <time>2022-05-19T07:20:39.327Z</time>
      </trkpt>
      <trkpt lat="43.19538" lon="2.49321">
        <ele>79.7</ele>
        <time>2022-05-19T07:20:52.359Z</time>
      </trkpt>
      <trkpt lat="43.19501" lon="2.4945">
        <ele>79</ele>
        <time>2022-05-19T07:21:11.218Z</time>
      </trkpt>
      <trkpt lat="43.19504" lon="2.49583">
        <ele>80.1</ele>
        <time>2022-05-19T07:21:33.564Z</time>
      </trkpt>
      <trkpt lat="43.19526" lon="2.49802">
        <ele>79.9</ele>
        <time>2022-05-19T07:22:06.211Z</time>
      </trkpt>
      <trkpt lat="43.19488" lon="2.50008">
        <ele>81.6</ele>
        <time>2022-05-19T07:22:41.762Z</time>
      </trkpt>
      <trkpt lat="43.19507" lon="2.50214">
        <ele>80.8</ele>
        <time>2022-05-19T07:23:10.669Z</time>
      </trkpt>
      <trkpt lat="43.19557" lon="2.50377">
        <ele>80.1</ele>
        <time>2022-05-19T07:23:35.238Z</time>
      </trkpt>
      <trkpt lat="43.19585" lon="2.50493">
        <ele>80.1</ele>
        <time>2022-05-19T07:23:53.626Z</time>
      </trkpt>
      <trkpt lat="43.19882" lon="2.50789">
        <ele>79.9</ele>
        <time>2022-05-19T07:25:08.779Z</time>
      </trkpt>
      <trkpt lat="43.19904" lon="2.50883">
        <ele>80.5</ele>
        <time>2022-05-19T07:25:24.863Z</time>
      </trkpt>
      <trkpt lat="43.19932" lon="2.51042">
        <ele>79.5</ele>
        <time>2022-05-19T07:25:43.492Z</time>
      </trkpt>
      <trkpt lat="43.20186" lon="2.51437">
        <ele>80</ele>
        <time>2022-05-19T07:27:03.707Z</time>
      </trkpt>
      <trkpt lat="43.2023" lon="2.51596">
        <ele>80.3</ele>
        <time>2022-05-19T07:27:29.878Z</time>
      </trkpt>
      <trkpt lat="43.20258" lon="2.51771">
        <ele>80.5</ele>
        <time>2022-05-19T07:27:57.220Z</time>
      </trkpt>
      <trkpt lat="43.20214" lon="2.5199">
        <ele>79.9</ele>
        <time>2022-05-19T07:28:29.604Z</time>
      </trkpt>
      <trkpt lat="43.20192" lon="2.52196">
        <ele>79</ele>
        <time>2022-05-19T07:28:58.323Z</time>
      </trkpt>
      <trkpt lat="43.20202" lon="2.52291">
        <ele>80.5</ele>
        <time>2022-05-19T07:29:16.295Z</time>
      </trkpt>
      <trkpt lat="43.20167" lon="2.52415">
        <ele>80.1</ele>
        <time>2022-05-19T07:29:35.113Z</time>
      </trkpt>
      <trkpt lat="43.20158" lon="2.52514">
        <ele>82.5</ele>
        <time>2022-05-19T07:29:56.629Z</time>
      </trkpt>
      <trkpt lat="43.20139" lon="2.52595">
        <ele>79.9</ele>
        <time>2022-05-19T07:30:03.288Z</time>
      </trkpt>
      <trkpt lat="43.20126" lon="2.52668">
        <ele>85.3</ele>
        <time>2022-05-19T07:30:32.291Z</time>
      </trkpt>
      <trkpt lat="43.20148" lon="2.52823">
        <ele>84.3</ele>
        <time>2022-05-19T07:30:50.201Z</time>
      </trkpt>
      <trkpt lat="43.2012" lon="2.53016">
        <ele>82.6</ele>
        <time>2022-05-19T07:31:11.604Z</time>
      </trkpt>
      <trkpt lat="43.20117" lon="2.53205">
        <ele>80.2</ele>
        <time>2022-05-19T07:31:30.782Z</time>
      </trkpt>
      <trkpt lat="43.20202" lon="2.53304">
        <ele>79.6</ele>
        <time>2022-05-19T07:31:52.045Z</time>
      </trkpt>
      <trkpt lat="43.20208" lon="2.53381">
        <ele>82.2</ele>
        <time>2022-05-19T07:32:11.907Z</time>
      </trkpt>
      <trkpt lat="43.20192" lon="2.53492">
        <ele>80.8</ele>
        <time>2022-05-19T07:32:23.447Z</time>
      </trkpt>
      <trkpt lat="43.20258" lon="2.53754">
        <ele>79.7</ele>
        <time>2022-05-19T07:33:01.946Z</time>
      </trkpt>
      <trkpt lat="43.20302" lon="2.53861">
        <ele>79</ele>
        <time>2022-05-19T07:33:16.046Z</time>
      </trkpt>
      <trkpt lat="43.20433" lon="2.5393">
        <ele>79.7</ele>
        <time>2022-05-19T07:33:46.398Z</time>
      </trkpt>
      <trkpt lat="43.20461" lon="2.5405">
        <ele>80</ele>
        <time>2022-05-19T07:34:05.941Z</time>
      </trkpt>
      <trkpt lat="43.20467" lon="2.54222">
        <ele>80.6</ele>
        <time>2022-05-19T07:34:33.037Z</time>
      </trkpt>
      <trkpt lat="43.20521" lon="2.54784">
        <ele>79.4</ele>
        <time>2022-05-19T07:35:54.696Z</time>
      </trkpt>
      <trkpt lat="43.20564" lon="2.54943">
        <ele>79.3</ele>
        <time>2022-05-19T07:36:19.900Z</time>
      </trkpt>
      <trkpt lat="43.20593" lon="2.55441">
        <ele>77.5</ele>
        <time>2022-05-19T07:37:29.777Z</time>
      </trkpt>
      <trkpt lat="43.20715" lon="2.55707">
        <ele>77.7</ele>
        <time>2022-05-19T07:38:17.444Z</time>
      </trkpt>
      <trkpt lat="43.20818" lon="2.56063">
        <ele>75.7</ele>
        <time>2022-05-19T07:39:09.372Z</time>
      </trkpt>
      <trkpt lat="43.20755" lon="2.56308">
        <ele>75.8</ele>
        <time>2022-05-19T07:39:48.651Z</time>
      </trkpt>
      <trkpt lat="43.20718" lon="2.56376">
        <ele>77.9</ele>
        <time>2022-05-19T07:40:07.181Z</time>
      </trkpt>
      <trkpt lat="43.20718" lon="2.56471">
        <ele>77.6</ele>
        <time>2022-05-19T07:40:20.585Z</time>
      </trkpt>
      <trkpt lat="43.20605" lon="2.56823">
        <ele>77.3</ele>
        <time>2022-05-19T07:41:17.522Z</time>
      </trkpt>
      <trkpt lat="43.20708" lon="2.57106">
        <ele>74.8</ele>
        <time>2022-05-19T07:41:52.379Z</time>
      </trkpt>
      <trkpt lat="43.20708" lon="2.57187">
        <ele>77.2</ele>
        <time>2022-05-19T07:42:11.796Z</time>
      </trkpt>
      <trkpt lat="43.20743" lon="2.57325">
        <ele>77.4</ele>
        <time>2022-05-19T07:42:34.165Z</time>
      </trkpt>
      <trkpt lat="43.2078" lon="2.57398">
        <ele>77.4</ele>
        <time>2022-05-19T07:42:47.543Z</time>
      </trkpt>
      <trkpt lat="43.2083" lon="2.57449">
        <ele>78.6</ele>
        <time>2022-05-19T07:43:03.159Z</time>
      </trkpt>
      <trkpt lat="43.2088" lon="2.57591">
        <ele>78.9</ele>
        <time>2022-05-19T07:43:27.467Z</time>
      </trkpt>
      <trkpt lat="43.20943" lon="2.57741">
        <ele>76.6</ele>
        <time>2022-05-19T07:43:44.856Z</time>
      </trkpt>
      <trkpt lat="43.20955" lon="2.5781">
        <ele>76.7</ele>
        <time>2022-05-19T07:43:55.721Z</time>
      </trkpt>
      <trkpt lat="43.20955" lon="2.57921">
        <ele>77.8</ele>
        <time>2022-05-19T07:44:14.797Z</time>
      </trkpt>
      <trkpt lat="43.20987" lon="2.58011">
        <ele>77.2</ele>
        <time>2022-05-19T07:44:26.225Z</time>
      </trkpt>
      <trkpt lat="43.21065" lon="2.58393">
        <ele>76.5</ele>
        <time>2022-05-19T07:45:23.775Z</time>
      </trkpt>
      <trkpt lat="43.21184" lon="2.58848">
        <ele>66.8</ele>
        <time>2022-05-19T07:46:07.461Z</time>
      </trkpt>
      <trkpt lat="43.21199" lon="2.58986">
        <ele>67.9</ele>
        <time>2022-05-19T07:46:30.761Z</time>
      </trkpt>
      <trkpt lat="43.2134" lon="2.59269">
        <ele>66.5</ele>
        <time>2022-05-19T07:47:18.257Z</time>
      </trkpt>
      <trkpt lat="43.21684" lon="2.59676">
        <ele>66.2</ele>
        <time>2022-05-19T07:48:51.079Z</time>
      </trkpt>
      <trkpt lat="43.21812" lon="2.59698">
        <ele>60.9</ele>
        <time>2022-05-19T07:49:05.036Z</time>
      </trkpt>
      <trkpt lat="43.21947" lon="2.59651">
        <ele>61.5</ele>
        <time>2022-05-19T07:49:34.967Z</time>
      </trkpt>
      <trkpt lat="43.22009" lon="2.59728">
        <ele>61.7</ele>
        <time>2022-05-19T07:49:52.615Z</time>
      </trkpt>
      <trkpt lat="43.22185" lon="2.59835">
        <ele>60.5</ele>
        <time>2022-05-19T07:50:28.887Z</time>
      </trkpt>
      <trkpt lat="43.22516" lon="2.59908">
        <ele>61.4</ele>
        <time>2022-05-19T07:51:39.834Z</time>
      </trkpt>
      <trkpt lat="43.22932" lon="2.60127">
        <ele>62.1</ele>
        <time>2022-05-19T07:53:13.149Z</time>
      </trkpt>
      <trkpt lat="43.22938" lon="2.60376">
        <ele>61.6</ele>
        <time>2022-05-19T07:53:49.103Z</time>
      </trkpt>
      <trkpt lat="43.22969" lon="2.60565">
        <ele>59.9</ele>
        <time>2022-05-19T07:54:10.111Z</time>
      </trkpt>
      <trkpt lat="43.22982" lon="2.60698">
        <ele>58.1</ele>
        <time>2022-05-19T07:54:23.556Z</time>
      </trkpt>
      <trkpt lat="43.22982" lon="2.60792">
        <ele>56.8</ele>
        <time>2022-05-19T07:54:32.910Z</time>
      </trkpt>
      <trkpt lat="43.23001" lon="2.60848">
        <ele>56.5</ele>
        <time>2022-05-19T07:54:41.340Z</time>
      </trkpt>
      <trkpt lat="43.23069" lon="2.60852">
        <ele>55.1</ele>
        <time>2022-05-19T07:54:50.464Z</time>
      </trkpt>
      <trkpt lat="43.23442" lon="2.61303">
        <ele>56.2</ele>
        <time>2022-05-19T07:56:35.198Z</time>
      </trkpt>
      <trkpt lat="43.23448" lon="2.61397">
        <ele>56.3</ele>
        <time>2022-05-19T07:56:49.581Z</time>
      </trkpt>
      <trkpt lat="43.23432" lon="2.61475">
        <ele>57.7</ele>
        <time>2022-05-19T07:57:05.149Z</time>
      </trkpt>
      <trkpt lat="43.23354" lon="2.61625">
        <ele>56.2</ele>
        <time>2022-05-19T07:57:25.360Z</time>
      </trkpt>
      <trkpt lat="43.23263" lon="2.61869">
        <ele>57.5</ele>
        <time>2022-05-19T07:58:09.198Z</time>
      </trkpt>
      <trkpt lat="43.23207" lon="2.6193">
        <ele>56.4</ele>
        <time>2022-05-19T07:58:19.398Z</time>
      </trkpt>
      <trkpt lat="43.23157" lon="2.62033">
        <ele>56.2</ele>
        <time>2022-05-19T07:58:37.400Z</time>
      </trkpt>
      <trkpt lat="43.23129" lon="2.63402">
        <ele>57</ele>
        <time>2022-05-19T08:02:04.900Z</time>
      </trkpt>
      <trkpt lat="43.23073" lon="2.63509">
        <ele>56</ele>
        <time>2022-05-19T08:02:19.494Z</time>
      </trkpt>
      <trkpt lat="43.23023" lon="2.63668">
        <ele>55.8</ele>
        <time>2022-05-19T08:02:44.922Z</time>
      </trkpt>
      <trkpt lat="43.23073" lon="2.63766">
        <ele>57.4</ele>
        <time>2022-05-19T08:03:06.552Z</time>
      </trkpt>
      <trkpt lat="43.23485" lon="2.6471">
        <ele>52.3</ele>
        <time>2022-05-19T08:05:37.351Z</time>
      </trkpt>
      <trkpt lat="43.23804" lon="2.65298">
        <ele>51.4</ele>
        <time>2022-05-19T08:07:24.828Z</time>
      </trkpt>
      <trkpt lat="43.23954" lon="2.655">
        <ele>53</ele>
        <time>2022-05-19T08:08:11.456Z</time>
      </trkpt>
      <trkpt lat="43.24136" lon="2.65594">
        <ele>53.8</ele>
        <time>2022-05-19T08:08:53.168Z</time>
      </trkpt>
      <trkpt lat="43.24229" lon="2.65753">
        <ele>53.8</ele>
        <time>2022-05-19T08:09:23.830Z</time>
      </trkpt>
      <trkpt lat="43.24308" lon="2.65998">
        <ele>51.3</ele>
        <time>2022-05-19T08:09:52.594Z</time>
      </trkpt>
      <trkpt lat="43.24442" lon="2.66122">
        <ele>51.7</ele>
        <time>2022-05-19T08:10:26.726Z</time>
      </trkpt>
      <trkpt lat="43.24608" lon="2.66054">
        <ele>51.9</ele>
        <time>2022-05-19T08:11:02.868Z</time>
      </trkpt>
      <trkpt lat="43.2477" lon="2.65916">
        <ele>52</ele>
        <time>2022-05-19T08:11:42.412Z</time>
      </trkpt>
      <trkpt lat="43.24836" lon="2.65985">
        <ele>51.1</ele>
        <time>2022-05-19T08:11:54.953Z</time>
      </trkpt>
      <trkpt lat="43.24836" lon="2.66097">
        <ele>51.1</ele>
        <time>2022-05-19T08:12:11.793Z</time>
      </trkpt>
      <trkpt lat="43.24742" lon="2.66552">
        <ele>51.9</ele>
        <time>2022-05-19T08:13:24.450Z</time>
      </trkpt>
      <trkpt lat="43.24748" lon="2.66715">
        <ele>51.5</ele>
        <time>2022-05-19T08:13:47.786Z</time>
      </trkpt>
      <trkpt lat="43.24817" lon="2.6683">
        <ele>52.1</ele>
        <time>2022-05-19T08:14:11.383Z</time>
      </trkpt>
      <trkpt lat="43.24945" lon="2.66869">
        <ele>53.9</ele>
        <time>2022-05-19T08:14:42.341Z</time>
      </trkpt>
      <trkpt lat="43.25002" lon="2.66852">
        <ele>49.7</ele>
        <time>2022-05-19T08:14:47.894Z</time>
      </trkpt>
      <trkpt lat="43.25098" lon="2.66564">
        <ele>51.8</ele>
        <time>2022-05-19T08:15:39.846Z</time>
      </trkpt>
      <trkpt lat="43.25158" lon="2.66517">
        <ele>51.9</ele>
        <time>2022-05-19T08:15:54.297Z</time>
      </trkpt>
      <trkpt lat="43.2523" lon="2.6659">
        <ele>51.7</ele>
        <time>2022-05-19T08:16:12.161Z</time>
      </trkpt>
      <trkpt lat="43.25355" lon="2.66762">
        <ele>51.8</ele>
        <time>2022-05-19T08:16:48.882Z</time>
      </trkpt>
      <trkpt lat="43.25392" lon="2.66903">
        <ele>52</ele>
        <time>2022-05-19T08:17:11.799Z</time>
      </trkpt>
      <trkpt lat="43.25645" lon="2.67298">
        <ele>51.8</ele>
        <time>2022-05-19T08:18:30.253Z</time>
      </trkpt>
      <trkpt lat="43.25936" lon="2.67672">
        <ele>51.3</ele>
        <time>2022-05-19T08:19:50.979Z</time>
      </trkpt>
      <trkpt lat="43.25974" lon="2.67878">
        <ele>51</ele>
        <time>2022-05-19T08:20:22.003Z</time>
      </trkpt>
      <trkpt lat="43.25974" lon="2.67933">
        <ele>51.1</ele>
        <time>2022-05-19T08:20:30.464Z</time>
      </trkpt>
      <trkpt lat="43.26114" lon="2.68225">
        <ele>51</ele>
        <time>2022-05-19T08:21:22.704Z</time>
      </trkpt>
      <trkpt lat="43.26305" lon="2.69264">
        <ele>48</ele>
        <time>2022-05-19T08:23:54.828Z</time>
      </trkpt>
      <trkpt lat="43.26411" lon="2.6962">
        <ele>47.4</ele>
        <time>2022-05-19T08:24:50.805Z</time>
      </trkpt>
      <trkpt lat="43.26602" lon="2.70131">
        <ele>49.1</ele>
        <time>2022-05-19T08:26:20.483Z</time>
      </trkpt>
      <trkpt lat="43.26689" lon="2.70483">
        <ele>48.5</ele>
        <time>2022-05-19T08:27:14.522Z</time>
      </trkpt>
      <trkpt lat="43.2668" lon="2.70826">
        <ele>48.5</ele>
        <time>2022-05-19T08:28:06.112Z</time>
      </trkpt>
      <trkpt lat="43.26727" lon="2.71289">
        <ele>48</ele>
        <time>2022-05-19T08:29:14.832Z</time>
      </trkpt>
      <trkpt lat="43.26805" lon="2.71521">
        <ele>48</ele>
        <time>2022-05-19T08:29:53.241Z</time>
      </trkpt>
      <trkpt lat="43.26852" lon="2.71766">
        <ele>48</ele>
        <time>2022-05-19T08:30:31.323Z</time>
      </trkpt>
      <trkpt lat="43.26867" lon="2.71761">
        <ele>48.1</ele>
        <time>2022-05-19T08:30:34.710Z</time>
      </trkpt>
      <trkpt lat="43.2698" lon="2.72379">
        <ele>47.8</ele>
        <time>2022-05-19T08:32:09.543Z</time>
      </trkpt>
      <trkpt lat="43.27002" lon="2.738">
        <ele>44.8</ele>
        <time>2022-05-19T08:35:34.087Z</time>
      </trkpt>
      <trkpt lat="43.26936" lon="2.73997">
        <ele>38.7</ele>
        <time>2022-05-19T08:35:51.574Z</time>
      </trkpt>
      <trkpt lat="43.26861" lon="2.74036">
        <ele>40.3</ele>
        <time>2022-05-19T08:36:11.830Z</time>
      </trkpt>
      <trkpt lat="43.26749" lon="2.74006">
        <ele>39.9</ele>
        <time>2022-05-19T08:36:34.184Z</time>
      </trkpt>
      <trkpt lat="43.2668" lon="2.74045">
        <ele>39.6</ele>
        <time>2022-05-19T08:36:48.693Z</time>
      </trkpt>
      <trkpt lat="43.26167" lon="2.74954">
        <ele>39.7</ele>
        <time>2022-05-19T08:39:41.751Z</time>
      </trkpt>
      <trkpt lat="43.25955" lon="2.75053">
        <ele>40</ele>
        <time>2022-05-19T08:40:28.548Z</time>
      </trkpt>
      <trkpt lat="43.24983" lon="2.75731">
        <ele>36.7</ele>
        <time>2022-05-19T08:44:03.624Z</time>
      </trkpt>
      <trkpt lat="43.24917" lon="2.75753">
        <ele>35.6</ele>
        <time>2022-05-19T08:44:13.217Z</time>
      </trkpt>
      <trkpt lat="43.24892" lon="2.75791">
        <ele>35.5</ele>
        <time>2022-05-19T08:44:20.612Z</time>
      </trkpt>
      <trkpt lat="43.24892" lon="2.75916">
        <ele>35.3</ele>
        <time>2022-05-19T08:44:38.794Z</time>
      </trkpt>
      <trkpt lat="43.24726" lon="2.76134">
        <ele>34.4</ele>
        <time>2022-05-19T08:45:23.528Z</time>
      </trkpt>
      <trkpt lat="43.24104" lon="2.76448">
        <ele>34.3</ele>
        <time>2022-05-19T08:47:40.014Z</time>
      </trkpt>
      <trkpt lat="43.24045" lon="2.76538">
        <ele>35.1</ele>
        <time>2022-05-19T08:47:59.870Z</time>
      </trkpt>
      <trkpt lat="43.24029" lon="2.76624">
        <ele>35.5</ele>
        <time>2022-05-19T08:48:14.019Z</time>
      </trkpt>
      <trkpt lat="43.23923" lon="2.77006">
        <ele>34.2</ele>
        <time>2022-05-19T08:49:11.636Z</time>
      </trkpt>
      <trkpt lat="43.24014" lon="2.78306">
        <ele>32.5</ele>
        <time>2022-05-19T08:52:22.794Z</time>
      </trkpt>
      <trkpt lat="43.24045" lon="2.78456">
        <ele>31.8</ele>
        <time>2022-05-19T08:52:44.218Z</time>
      </trkpt>
      <trkpt lat="43.24242" lon="2.78791">
        <ele>32.3</ele>
        <time>2022-05-19T08:53:49.917Z</time>
      </trkpt>
      <trkpt lat="43.24248" lon="2.7889">
        <ele>33.9</ele>
        <time>2022-05-19T08:54:08.649Z</time>
      </trkpt>
      <trkpt lat="43.24198" lon="2.79139">
        <ele>32.1</ele>
        <time>2022-05-19T08:54:37.579Z</time>
      </trkpt>
      <trkpt lat="43.24204" lon="2.79332">
        <ele>32.3</ele>
        <time>2022-05-19T08:55:07.011Z</time>
      </trkpt>
      <trkpt lat="43.24186" lon="2.79692">
        <ele>33.7</ele>
        <time>2022-05-19T08:56:04.055Z</time>
      </trkpt>
      <trkpt lat="43.2427" lon="2.79945">
        <ele>32</ele>
        <time>2022-05-19T08:56:35.694Z</time>
      </trkpt>
      <trkpt lat="43.24442" lon="2.80091">
        <ele>32.7</ele>
        <time>2022-05-19T08:57:18.804Z</time>
      </trkpt>
      <trkpt lat="43.24592" lon="2.80194">
        <ele>33.6</ele>
        <time>2022-05-19T08:57:55.215Z</time>
      </trkpt>
      <trkpt lat="43.24639" lon="2.80297">
        <ele>32.6</ele>
        <time>2022-05-19T08:58:08.520Z</time>
      </trkpt>
      <trkpt lat="43.24786" lon="2.80435">
        <ele>34.1</ele>
        <time>2022-05-19T08:58:48.354Z</time>
      </trkpt>
      <trkpt lat="43.25005" lon="2.80812">
        <ele>32.2</ele>
        <time>2022-05-19T08:59:55.308Z</time>
      </trkpt>
      <trkpt lat="43.25042" lon="2.8092">
        <ele>32.6</ele>
        <time>2022-05-19T09:00:14.042Z</time>
      </trkpt>
      <trkpt lat="43.25111" lon="2.81168">
        <ele>32</ele>
        <time>2022-05-19T09:00:52.145Z</time>
      </trkpt>
      <trkpt lat="43.25145" lon="2.81456">
        <ele>32.7</ele>
        <time>2022-05-19T09:01:37.375Z</time>
      </trkpt>
      <trkpt lat="43.25148" lon="2.81628">
        <ele>32.4</ele>
        <time>2022-05-19T09:02:02.327Z</time>
      </trkpt>
      <trkpt lat="43.25198" lon="2.81791">
        <ele>32.6</ele>
        <time>2022-05-19T09:02:29.302Z</time>
      </trkpt>
      <trkpt lat="43.2517" lon="2.821">
        <ele>32.9</ele>
        <time>2022-05-19T09:03:16.692Z</time>
      </trkpt>
      <trkpt lat="43.25089" lon="2.82331">
        <ele>33.2</ele>
        <time>2022-05-19T09:03:55.814Z</time>
      </trkpt>
      <trkpt lat="43.24873" lon="2.83121">
        <ele>33.1</ele>
        <time>2022-05-19T09:06:02.370Z</time>
      </trkpt>
      <trkpt lat="43.24883" lon="2.83396">
        <ele>34.3</ele>
        <time>2022-05-19T09:06:46.169Z</time>
      </trkpt>
      <trkpt lat="43.2487" lon="2.83945">
        <ele>32.6</ele>
        <time>2022-05-19T09:08:03.710Z</time>
      </trkpt>
      <trkpt lat="43.25023" lon="2.83949">
        <ele>32</ele>
        <time>2022-05-19T09:08:33.508Z</time>
      </trkpt>
      <trkpt lat="43.25202" lon="2.83906">
        <ele>32.3</ele>
        <time>2022-05-19T09:09:11.595Z</time>
      </trkpt>
      <trkpt lat="43.25333" lon="2.83834">
        <ele>32</ele>
        <time>2022-05-19T09:09:39.804Z</time>
      </trkpt>
      <trkpt lat="43.25442" lon="2.83967">
        <ele>30.8</ele>
        <time>2022-05-19T09:10:02.634Z</time>
      </trkpt>
      <trkpt lat="43.25458" lon="2.84095">
        <ele>33.8</ele>
        <time>2022-05-19T09:10:30.154Z</time>
      </trkpt>
      <trkpt lat="43.25392" lon="2.84117">
        <ele>32.2</ele>
        <time>2022-05-19T09:10:38.952Z</time>
      </trkpt>
      <trkpt lat="43.25227" lon="2.84207">
        <ele>32.1</ele>
        <time>2022-05-19T09:11:15.287Z</time>
      </trkpt>
      <trkpt lat="43.25114" lon="2.84297">
        <ele>32.3</ele>
        <time>2022-05-19T09:11:42.637Z</time>
      </trkpt>
      <trkpt lat="43.25017" lon="2.84336">
        <ele>32.1</ele>
        <time>2022-05-19T09:12:02.887Z</time>
      </trkpt>
      <trkpt lat="43.24933" lon="2.84396">
        <ele>32.6</ele>
        <time>2022-05-19T09:12:23.427Z</time>
      </trkpt>
      <trkpt lat="43.24864" lon="2.84512">
        <ele>32.3</ele>
        <time>2022-05-19T09:12:45.034Z</time>
      </trkpt>
      <trkpt lat="43.24798" lon="2.85009">
        <ele>31.4</ele>
        <time>2022-05-19T09:13:58.249Z</time>
      </trkpt>
      <trkpt lat="43.24795" lon="2.85439">
        <ele>31.5</ele>
        <time>2022-05-19T09:15:03.096Z</time>
      </trkpt>
      <trkpt lat="43.2477" lon="2.85563">
        <ele>31</ele>
        <time>2022-05-19T09:15:20.979Z</time>
      </trkpt>
      <trkpt lat="43.24745" lon="2.85842">
        <ele>32.4</ele>
        <time>2022-05-19T09:16:06.069Z</time>
      </trkpt>
      <trkpt lat="43.24714" lon="2.85971">
        <ele>32.6</ele>
        <time>2022-05-19T09:16:26.879Z</time>
      </trkpt>
      <trkpt lat="43.24667" lon="2.86335">
        <ele>32</ele>
        <time>2022-05-19T09:17:20.628Z</time>
      </trkpt>
      <trkpt lat="43.24686" lon="2.86687">
        <ele>31.3</ele>
        <time>2022-05-19T09:18:11.575Z</time>
      </trkpt>
      <trkpt lat="43.24761" lon="2.8682">
        <ele>30.4</ele>
        <time>2022-05-19T09:18:30.989Z</time>
      </trkpt>
      <trkpt lat="43.24814" lon="2.87086">
        <ele>32.9</ele>
        <time>2022-05-19T09:19:17.789Z</time>
      </trkpt>
      <trkpt lat="43.24801" lon="2.87292">
        <ele>31.9</ele>
        <time>2022-05-19T09:19:46.008Z</time>
      </trkpt>
      <trkpt lat="43.24814" lon="2.87383">
        <ele>32.6</ele>
        <time>2022-05-19T09:20:01.413Z</time>
      </trkpt>
      <trkpt lat="43.24877" lon="2.87468">
        <ele>31.6</ele>
        <time>2022-05-19T09:20:14.684Z</time>
      </trkpt>
      <trkpt lat="43.24911" lon="2.87696">
        <ele>31.8</ele>
        <time>2022-05-19T09:20:50.058Z</time>
      </trkpt>
      <trkpt lat="43.24958" lon="2.87838">
        <ele>32.8</ele>
        <time>2022-05-19T09:21:15.566Z</time>
      </trkpt>
      <trkpt lat="43.2527" lon="2.88172">
        <ele>31.6</ele>
        <time>2022-05-19T09:22:33.607Z</time>
      </trkpt>
      <trkpt lat="43.25358" lon="2.88365">
        <ele>32.8</ele>
        <time>2022-05-19T09:23:10.270Z</time>
      </trkpt>
      <trkpt lat="43.25395" lon="2.8852">
        <ele>31.8</ele>
        <time>2022-05-19T09:23:28.822Z</time>
      </trkpt>
      <trkpt lat="43.2553" lon="2.88653">
        <ele>32</ele>
        <time>2022-05-19T09:24:03.502Z</time>
      </trkpt>
      <trkpt lat="43.2577" lon="2.88782">
        <ele>31.7</ele>
        <time>2022-05-19T09:24:55.772Z</time>
      </trkpt>
      <trkpt lat="43.25827" lon="2.88996">
        <ele>32.2</ele>
        <time>2022-05-19T09:25:31.000Z</time>
      </trkpt>
      <trkpt lat="43.25764" lon="2.89228">
        <ele>32</ele>
        <time>2022-05-19T09:26:07.601Z</time>
      </trkpt>
      <trkpt lat="43.25736" lon="2.89378">
        <ele>31.8</ele>
        <time>2022-05-19T09:26:30.264Z</time>
      </trkpt>
      <trkpt lat="43.25761" lon="2.89644">
        <ele>31.9</ele>
        <time>2022-05-19T09:27:10.774Z</time>
      </trkpt>
      <trkpt lat="43.25983" lon="2.89949">
        <ele>32</ele>
        <time>2022-05-19T09:28:15.789Z</time>
      </trkpt>
      <trkpt lat="43.26202" lon="2.90309">
        <ele>32</ele>
        <time>2022-05-19T09:29:26.304Z</time>
      </trkpt>
      <trkpt lat="43.26342" lon="2.90468">
        <ele>32</ele>
        <time>2022-05-19T09:30:03.806Z</time>
      </trkpt>
      <trkpt lat="43.2643" lon="2.90494">
        <ele>32</ele>
        <time>2022-05-19T09:30:22.387Z</time>
      </trkpt>
      <trkpt lat="43.2653" lon="2.90477">
        <ele>32.2</ele>
        <time>2022-05-19T09:30:43.572Z</time>
      </trkpt>
      <trkpt lat="43.26661" lon="2.90391">
        <ele>32</ele>
        <time>2022-05-19T09:31:12.925Z</time>
      </trkpt>
      <trkpt lat="43.26792" lon="2.90357">
        <ele>32</ele>
        <time>2022-05-19T09:31:40.445Z</time>
      </trkpt>
      <trkpt lat="43.26896" lon="2.90387">
        <ele>32.1</ele>
        <time>2022-05-19T09:32:02.572Z</time>
      </trkpt>
      <trkpt lat="43.2717" lon="2.9055">
        <ele>32.1</ele>
        <time>2022-05-19T09:33:04.210Z</time>
      </trkpt>
      <trkpt lat="43.27224" lon="2.90717">
        <ele>32</ele>
        <time>2022-05-19T09:33:31.361Z</time>
      </trkpt>
      <trkpt lat="43.27289" lon="2.91168">
        <ele>32</ele>
        <time>2022-05-19T09:34:40.459Z</time>
      </trkpt>
      <trkpt lat="43.27342" lon="2.91322">
        <ele>32</ele>
        <time>2022-05-19T09:35:06.060Z</time>
      </trkpt>
      <trkpt lat="43.27395" lon="2.91425">
        <ele>32</ele>
        <time>2022-05-19T09:35:25.016Z</time>
      </trkpt>
      <trkpt lat="43.27474" lon="2.91528">
        <ele>32</ele>
        <time>2022-05-19T09:35:47.501Z</time>
      </trkpt>
      <trkpt lat="43.27577" lon="2.91537">
        <ele>32</ele>
        <time>2022-05-19T09:36:08.806Z</time>
      </trkpt>
      <trkpt lat="43.27955" lon="2.91434">
        <ele>32.9</ele>
        <time>2022-05-19T09:37:30.093Z</time>
      </trkpt>
      <trkpt lat="43.2803" lon="2.91541">
        <ele>22.2</ele>
        <time>2022-05-19T09:37:40.387Z</time>
      </trkpt>
      <trkpt lat="43.2818" lon="2.9185">
        <ele>32.3</ele>
        <time>2022-05-19T09:39:05.229Z</time>
      </trkpt>
      <trkpt lat="43.28214" lon="2.92017">
        <ele>33.6</ele>
        <time>2022-05-19T09:39:34.002Z</time>
      </trkpt>
      <trkpt lat="43.28336" lon="2.92193">
        <ele>32</ele>
        <time>2022-05-19T09:40:01.396Z</time>
      </trkpt>
      <trkpt lat="43.29885" lon="2.92614">
        <ele>30.5</ele>
        <time>2022-05-19T09:45:22.665Z</time>
      </trkpt>
      <trkpt lat="43.30604" lon="2.92691">
        <ele>31.2</ele>
        <time>2022-05-19T09:47:52.869Z</time>
      </trkpt>
      <trkpt lat="43.30772" lon="2.92631">
        <ele>32.1</ele>
        <time>2022-05-19T09:48:30.486Z</time>
      </trkpt>
      <trkpt lat="43.30985" lon="2.92284">
        <ele>32.3</ele>
        <time>2022-05-19T09:49:39.057Z</time>
      </trkpt>
      <trkpt lat="43.31091" lon="2.91992">
        <ele>31.9</ele>
        <time>2022-05-19T09:50:26.838Z</time>
      </trkpt>
      <trkpt lat="43.31247" lon="2.91708">
        <ele>31.5</ele>
        <time>2022-05-19T09:51:19.049Z</time>
      </trkpt>
      <trkpt lat="43.31316" lon="2.91696">
        <ele>32</ele>
        <time>2022-05-19T09:51:34.418Z</time>
      </trkpt>
      <trkpt lat="43.31369" lon="2.91816">
        <ele>31.7</ele>
        <time>2022-05-19T09:51:54.594Z</time>
      </trkpt>
      <trkpt lat="43.31359" lon="2.91919">
        <ele>32</ele>
        <time>2022-05-19T09:52:10.790Z</time>
      </trkpt>
      <trkpt lat="43.31312" lon="2.91992">
        <ele>31.7</ele>
        <time>2022-05-19T09:52:24.539Z</time>
      </trkpt>
      <trkpt lat="43.31287" lon="2.92052">
        <ele>32.4</ele>
        <time>2022-05-19T09:52:36.441Z</time>
      </trkpt>
      <trkpt lat="43.31291" lon="2.92215">
        <ele>31.1</ele>
        <time>2022-05-19T09:52:54.355Z</time>
      </trkpt>
      <trkpt lat="43.31356" lon="2.92391">
        <ele>31</ele>
        <time>2022-05-19T09:53:23.687Z</time>
      </trkpt>
      <trkpt lat="43.316" lon="2.92846">
        <ele>32.1</ele>
        <time>2022-05-19T09:54:50.712Z</time>
      </trkpt>
      <trkpt lat="43.31618" lon="2.92992">
        <ele>31.5</ele>
        <time>2022-05-19T09:55:11.204Z</time>
      </trkpt>
      <trkpt lat="43.31537" lon="2.93417">
        <ele>32</ele>
        <time>2022-05-19T09:56:18.147Z</time>
      </trkpt>
      <trkpt lat="43.31547" lon="2.93489">
        <ele>31.4</ele>
        <time>2022-05-19T09:56:26.167Z</time>
      </trkpt>
      <trkpt lat="43.31665" lon="2.93678">
        <ele>32</ele>
        <time>2022-05-19T09:57:04.741Z</time>
      </trkpt>
      <trkpt lat="43.31665" lon="2.93777">
        <ele>32</ele>
        <time>2022-05-19T09:57:19.610Z</time>
      </trkpt>
      <trkpt lat="43.31597" lon="2.93962">
        <ele>32.1</ele>
        <time>2022-05-19T09:57:50.929Z</time>
      </trkpt>
      <trkpt lat="43.31603" lon="2.94086">
        <ele>30.4</ele>
        <time>2022-05-19T09:58:03.305Z</time>
      </trkpt>
      <trkpt lat="43.31631" lon="2.94271">
        <ele>31.1</ele>
        <time>2022-05-19T09:58:33.073Z</time>
      </trkpt>
      <trkpt lat="43.31612" lon="2.94408">
        <ele>31.7</ele>
        <time>2022-05-19T09:58:55.218Z</time>
      </trkpt>
      <trkpt lat="43.31528" lon="2.94472">
        <ele>31</ele>
        <time>2022-05-19T09:59:10.450Z</time>
      </trkpt>
      <trkpt lat="43.31394" lon="2.94524">
        <ele>31.3</ele>
        <time>2022-05-19T09:59:39.771Z</time>
      </trkpt>
      <trkpt lat="43.31297" lon="2.94575">
        <ele>31.8</ele>
        <time>2022-05-19T10:00:02.198Z</time>
      </trkpt>
      <trkpt lat="43.31259" lon="2.94614">
        <ele>32</ele>
        <time>2022-05-19T10:00:12.381Z</time>
      </trkpt>
      <trkpt lat="43.31266" lon="2.9479">
        <ele>33.3</ele>
        <time>2022-05-19T10:00:41.565Z</time>
      </trkpt>
      <trkpt lat="43.31259" lon="2.94919">
        <ele>33.3</ele>
        <time>2022-05-19T10:01:00.994Z</time>
      </trkpt>
      <trkpt lat="43.31262" lon="2.95159">
        <ele>33.4</ele>
        <time>2022-05-19T10:01:37.237Z</time>
      </trkpt>
      <trkpt lat="43.31297" lon="2.95296">
        <ele>32.2</ele>
        <time>2022-05-19T10:01:53.102Z</time>
      </trkpt>
      <trkpt lat="43.31444" lon="2.95519">
        <ele>32</ele>
        <time>2022-05-19T10:02:37.673Z</time>
      </trkpt>
      <trkpt lat="43.31444" lon="2.95644">
        <ele>32.2</ele>
        <time>2022-05-19T10:02:56.833Z</time>
      </trkpt>
      <trkpt lat="43.31403" lon="2.95777">
        <ele>32.5</ele>
        <time>2022-05-19T10:03:19.110Z</time>
      </trkpt>
      <trkpt lat="43.31378" lon="2.95914">
        <ele>34</ele>
        <time>2022-05-19T10:03:43.598Z</time>
      </trkpt>
      <trkpt lat="43.31353" lon="2.96223">
        <ele>31.7</ele>
        <time>2022-05-19T10:04:18.104Z</time>
      </trkpt>
      <trkpt lat="43.31353" lon="2.96343">
        <ele>30.4</ele>
        <time>2022-05-19T10:04:30.638Z</time>
      </trkpt>
      <trkpt lat="43.31422" lon="2.96463">
        <ele>31.2</ele>
        <time>2022-05-19T10:04:55.229Z</time>
      </trkpt>
      <trkpt lat="43.315" lon="2.96635">
        <ele>31</ele>
        <time>2022-05-19T10:05:25.049Z</time>
      </trkpt>
      <trkpt lat="43.31728" lon="2.96901">
        <ele>31</ele>
        <time>2022-05-19T10:06:26.783Z</time>
      </trkpt>
      <trkpt lat="43.3179" lon="2.97176">
        <ele>30.4</ele>
        <time>2022-05-19T10:07:08.204Z</time>
      </trkpt>
      <trkpt lat="43.31753" lon="2.97335">
        <ele>31.2</ele>
        <time>2022-05-19T10:07:34.885Z</time>
      </trkpt>
      <trkpt lat="43.31693" lon="2.97489">
        <ele>31.7</ele>
        <time>2022-05-19T10:08:02.102Z</time>
      </trkpt>
      <trkpt lat="43.31672" lon="2.97644">
        <ele>32.5</ele>
        <time>2022-05-19T10:08:27.397Z</time>
      </trkpt>
      <trkpt lat="43.31809" lon="2.98116">
        <ele>31.5</ele>
        <time>2022-05-19T10:09:40.680Z</time>
      </trkpt>
      <trkpt lat="43.31837" lon="2.98296">
        <ele>31.7</ele>
        <time>2022-05-19T10:10:08.708Z</time>
      </trkpt>
      <trkpt lat="43.31868" lon="2.98708">
        <ele>32.1</ele>
        <time>2022-05-19T10:11:11.679Z</time>
      </trkpt>
      <trkpt lat="43.3194" lon="2.98914">
        <ele>29.3</ele>
        <time>2022-05-19T10:11:34.980Z</time>
      </trkpt>
      <trkpt lat="43.32049" lon="2.99056">
        <ele>31.2</ele>
        <time>2022-05-19T10:12:10.044Z</time>
      </trkpt>
      <trkpt lat="43.32127" lon="2.99107">
        <ele>31.3</ele>
        <time>2022-05-19T10:12:28.065Z</time>
      </trkpt>
      <trkpt lat="43.32221" lon="2.99086">
        <ele>32</ele>
        <time>2022-05-19T10:12:49.142Z</time>
      </trkpt>
      <trkpt lat="43.32268" lon="2.98953">
        <ele>32.3</ele>
        <time>2022-05-19T10:13:11.929Z</time>
      </trkpt>
      <trkpt lat="43.32305" lon="2.98798">
        <ele>31.6</ele>
        <time>2022-05-19T10:13:34.396Z</time>
      </trkpt>
      <trkpt lat="43.32358" lon="2.98768">
        <ele>31.7</ele>
        <time>2022-05-19T10:13:46.420Z</time>
      </trkpt>
      <trkpt lat="43.32399" lon="2.98781">
        <ele>32.3</ele>
        <time>2022-05-19T10:13:56.411Z</time>
      </trkpt>
      <trkpt lat="43.32515" lon="2.99176">
        <ele>31.5</ele>
        <time>2022-05-19T10:14:57.944Z</time>
      </trkpt>
      <trkpt lat="43.32543" lon="2.99463">
        <ele>32.4</ele>
        <time>2022-05-19T10:15:43.198Z</time>
      </trkpt>
      <trkpt lat="43.32549" lon="2.99712">
        <ele>30.8</ele>
        <time>2022-05-19T10:16:11.343Z</time>
      </trkpt>
      <trkpt lat="43.32502" lon="2.99957">
        <ele>31.1</ele>
        <time>2022-05-19T10:16:49.968Z</time>
      </trkpt>
      <trkpt lat="43.31809" lon="3.01287">
        <ele>31.8</ele>
        <time>2022-05-19T10:20:56.975Z</time>
      </trkpt>
      <trkpt lat="43.31837" lon="3.0142">
        <ele>31.5</ele>
        <time>2022-05-19T10:21:16.862Z</time>
      </trkpt>
      <trkpt lat="43.31962" lon="3.01429">
        <ele>30.9</ele>
        <time>2022-05-19T10:21:40.932Z</time>
      </trkpt>
      <trkpt lat="43.32477" lon="3.01257">
        <ele>31.2</ele>
        <time>2022-05-19T10:23:30.903Z</time>
      </trkpt>
      <trkpt lat="43.3254" lon="3.01219">
        <ele>31.1</ele>
        <time>2022-05-19T10:23:44.795Z</time>
      </trkpt>
      <trkpt lat="43.32783" lon="3.00854">
        <ele>30.7</ele>
        <time>2022-05-19T10:24:57.849Z</time>
      </trkpt>
      <trkpt lat="43.32877" lon="3.00656">
        <ele>31.3</ele>
        <time>2022-05-19T10:25:34.524Z</time>
      </trkpt>
      <trkpt lat="43.33017" lon="3.00828">
        <ele>30.9</ele>
        <time>2022-05-19T10:26:12.057Z</time>
      </trkpt>
      <trkpt lat="43.32905" lon="3.01416">
        <ele>32</ele>
        <time>2022-05-19T10:27:45.453Z</time>
      </trkpt>
      <trkpt lat="43.32917" lon="3.01515">
        <ele>32.1</ele>
        <time>2022-05-19T10:28:00.715Z</time>
      </trkpt>
      <trkpt lat="43.3302" lon="3.01545">
        <ele>31.5</ele>
        <time>2022-05-19T10:28:20.704Z</time>
      </trkpt>
      <trkpt lat="43.33055" lon="3.01592">
        <ele>31</ele>
        <time>2022-05-19T10:28:28.161Z</time>
      </trkpt>
      <trkpt lat="43.33027" lon="3.01652">
        <ele>31.9</ele>
        <time>2022-05-19T10:28:40.889Z</time>
      </trkpt>
      <trkpt lat="43.32936" lon="3.01695">
        <ele>31.1</ele>
        <time>2022-05-19T10:28:55.936Z</time>
      </trkpt>
      <trkpt lat="43.3282" lon="3.01682">
        <ele>31.4</ele>
        <time>2022-05-19T10:29:20.542Z</time>
      </trkpt>
      <trkpt lat="43.32746" lon="3.01742">
        <ele>30.9</ele>
        <time>2022-05-19T10:29:36.824Z</time>
      </trkpt>
      <trkpt lat="43.32721" lon="3.01798">
        <ele>31.5</ele>
        <time>2022-05-19T10:29:47.972Z</time>
      </trkpt>
      <trkpt lat="43.3249" lon="3.01811">
        <ele>31.9</ele>
        <time>2022-05-19T10:30:36.464Z</time>
      </trkpt>
      <trkpt lat="43.32443" lon="3.01888">
        <ele>31.1</ele>
        <time>2022-05-19T10:30:47.505Z</time>
      </trkpt>
      <trkpt lat="43.32465" lon="3.01939">
        <ele>32.5</ele>
        <time>2022-05-19T10:31:00.176Z</time>
      </trkpt>
      <trkpt lat="43.32627" lon="3.01974">
        <ele>32.7</ele>
        <time>2022-05-19T10:31:34.409Z</time>
      </trkpt>
      <trkpt lat="43.32655" lon="3.02167">
        <ele>32</ele>
        <time>2022-05-19T10:32:01.902Z</time>
      </trkpt>
      <trkpt lat="43.32664" lon="3.023">
        <ele>31.8</ele>
        <time>2022-05-19T10:32:21.346Z</time>
      </trkpt>
      <trkpt lat="43.32633" lon="3.02506">
        <ele>30.2</ele>
        <time>2022-05-19T10:32:44.600Z</time>
      </trkpt>
      <trkpt lat="43.32702" lon="3.02798">
        <ele>31.9</ele>
        <time>2022-05-19T10:33:34.158Z</time>
      </trkpt>
      <trkpt lat="43.32714" lon="3.02828">
        <ele>31.4</ele>
        <time>2022-05-19T10:33:37.516Z</time>
      </trkpt>
      <trkpt lat="43.32764" lon="3.0306">
        <ele>32.4</ele>
        <time>2022-05-19T10:34:15.845Z</time>
      </trkpt>
      <trkpt lat="43.32817" lon="3.0312">
        <ele>32.4</ele>
        <time>2022-05-19T10:34:30.017Z</time>
      </trkpt>
      <trkpt lat="43.3287" lon="3.0312">
        <ele>30.4</ele>
        <time>2022-05-19T10:34:35.938Z</time>
      </trkpt>
      <trkpt lat="43.32964" lon="3.02952">
        <ele>31.4</ele>
        <time>2022-05-19T10:35:09.774Z</time>
      </trkpt>
      <trkpt lat="43.33126" lon="3.02811">
        <ele>31.1</ele>
        <time>2022-05-19T10:35:48.426Z</time>
      </trkpt>
      <trkpt lat="43.33226" lon="3.02892">
        <ele>32.3</ele>
        <time>2022-05-19T10:36:14.891Z</time>
      </trkpt>
      <trkpt lat="43.33151" lon="3.03364">
        <ele>31.9</ele>
        <time>2022-05-19T10:37:26.190Z</time>
      </trkpt>
      <trkpt lat="43.33117" lon="3.03446">
        <ele>31.2</ele>
        <time>2022-05-19T10:37:36.659Z</time>
      </trkpt>
      <trkpt lat="43.33092" lon="3.03849">
        <ele>32.1</ele>
        <time>2022-05-19T10:38:39.140Z</time>
      </trkpt>
      <trkpt lat="43.33045" lon="3.03952">
        <ele>31.3</ele>
        <time>2022-05-19T10:38:52.835Z</time>
      </trkpt>
      <trkpt lat="43.33048" lon="3.0409">
        <ele>31.3</ele>
        <time>2022-05-19T10:39:13.565Z</time>
      </trkpt>
      <trkpt lat="43.33154" lon="3.04321">
        <ele>30.8</ele>
        <time>2022-05-19T10:39:53.053Z</time>
      </trkpt>
      <trkpt lat="43.33161" lon="3.04437">
        <ele>30.9</ele>
        <time>2022-05-19T10:40:10.721Z</time>
      </trkpt>
      <trkpt lat="43.33108" lon="3.04587">
        <ele>31.6</ele>
        <time>2022-05-19T10:40:37.158Z</time>
      </trkpt>
      <trkpt lat="43.33045" lon="3.04866">
        <ele>31.7</ele>
        <time>2022-05-19T10:41:21.212Z</time>
      </trkpt>
      <trkpt lat="43.33036" lon="3.05257">
        <ele>32</ele>
        <time>2022-05-19T10:42:20.525Z</time>
      </trkpt>
      <trkpt lat="43.33098" lon="3.05437">
        <ele>32.2</ele>
        <time>2022-05-19T10:42:50.812Z</time>
      </trkpt>
      <trkpt lat="43.33133" lon="3.0572">
        <ele>32.6</ele>
        <time>2022-05-19T10:43:34.685Z</time>
      </trkpt>
      <trkpt lat="43.33142" lon="3.06334">
        <ele>32.1</ele>
        <time>2022-05-19T10:45:05.342Z</time>
      </trkpt>
      <trkpt lat="43.33126" lon="3.06549">
        <ele>32</ele>
        <time>2022-05-19T10:45:37.480Z</time>
      </trkpt>
      <trkpt lat="43.33126" lon="3.06579">
        <ele>32</ele>
        <time>2022-05-19T10:45:41.984Z</time>
      </trkpt>
      <trkpt lat="43.33048" lon="3.06695">
        <ele>32</ele>
        <time>2022-05-19T10:46:05.704Z</time>
      </trkpt>
      <trkpt lat="43.32973" lon="3.06733">
        <ele>32</ele>
        <time>2022-05-19T10:46:22.203Z</time>
      </trkpt>
      <trkpt lat="43.32867" lon="3.06772">
        <ele>32</ele>
        <time>2022-05-19T10:46:44.854Z</time>
      </trkpt>
      <trkpt lat="43.32739" lon="3.06982">
        <ele>32.2</ele>
        <time>2022-05-19T10:47:26.376Z</time>
      </trkpt>
      <trkpt lat="43.32624" lon="3.07244">
        <ele>32.5</ele>
        <time>2022-05-19T10:48:12.900Z</time>
      </trkpt>
      <trkpt lat="43.32511" lon="3.07446">
        <ele>32.4</ele>
        <time>2022-05-19T10:48:50.851Z</time>
      </trkpt>
      <trkpt lat="43.32393" lon="3.07561">
        <ele>32.1</ele>
        <time>2022-05-19T10:49:19.790Z</time>
      </trkpt>
      <trkpt lat="43.32068" lon="3.07527">
        <ele>33.1</ele>
        <time>2022-05-19T10:50:29.017Z</time>
      </trkpt>
      <trkpt lat="43.31956" lon="3.0745">
        <ele>32.3</ele>
        <time>2022-05-19T10:50:52.562Z</time>
      </trkpt>
      <trkpt lat="43.31893" lon="3.07381">
        <ele>32.6</ele>
        <time>2022-05-19T10:51:09.778Z</time>
      </trkpt>
      <trkpt lat="43.31828" lon="3.07167">
        <ele>32.4</ele>
        <time>2022-05-19T10:51:43.984Z</time>
      </trkpt>
      <trkpt lat="43.31793" lon="3.07128">
        <ele>31.8</ele>
        <time>2022-05-19T10:51:50.581Z</time>
      </trkpt>
      <trkpt lat="43.31737" lon="3.07128">
        <ele>33.5</ele>
        <time>2022-05-19T10:52:06.593Z</time>
      </trkpt>
      <trkpt lat="43.31678" lon="3.07038">
        <ele>32.9</ele>
        <time>2022-05-19T10:52:23.069Z</time>
      </trkpt>
      <trkpt lat="43.31606" lon="3.06913">
        <ele>33</ele>
        <time>2022-05-19T10:52:47.204Z</time>
      </trkpt>
      <trkpt lat="43.31534" lon="3.06883">
        <ele>33.9</ele>
        <time>2022-05-19T10:53:04.646Z</time>
      </trkpt>
      <trkpt lat="43.31456" lon="3.06926">
        <ele>32.6</ele>
        <time>2022-05-19T10:53:16.623Z</time>
      </trkpt>
      <trkpt lat="43.31381" lon="3.07004">
        <ele>30.8</ele>
        <time>2022-05-19T10:53:29.445Z</time>
      </trkpt>
      <trkpt lat="43.31325" lon="3.07244">
        <ele>33.9</ele>
        <time>2022-05-19T10:54:14.235Z</time>
      </trkpt>
      <trkpt lat="43.31206" lon="3.0751">
        <ele>33.1</ele>
        <time>2022-05-19T10:54:58.734Z</time>
      </trkpt>
      <trkpt lat="43.31122" lon="3.07583">
        <ele>32.4</ele>
        <time>2022-05-19T10:55:17.252Z</time>
      </trkpt>
      <trkpt lat="43.31025" lon="3.07647">
        <ele>31.8</ele>
        <time>2022-05-19T10:55:37.714Z</time>
      </trkpt>
      <trkpt lat="43.3101" lon="3.07707">
        <ele>32.4</ele>
        <time>2022-05-19T10:55:48.531Z</time>
      </trkpt>
      <trkpt lat="43.3101" lon="3.07815">
        <ele>32.4</ele>
        <time>2022-05-19T10:56:04.753Z</time>
      </trkpt>
      <trkpt lat="43.30956" lon="3.07883">
        <ele>32.7</ele>
        <time>2022-05-19T10:56:20.461Z</time>
      </trkpt>
      <trkpt lat="43.30791" lon="3.07883">
        <ele>32.5</ele>
        <time>2022-05-19T10:56:53.900Z</time>
      </trkpt>
      <trkpt lat="43.30594" lon="3.0772">
        <ele>31.2</ele>
        <time>2022-05-19T10:57:37.584Z</time>
      </trkpt>
      <trkpt lat="43.30532" lon="3.07978">
        <ele>34.3</ele>
        <time>2022-05-19T10:58:25.242Z</time>
      </trkpt>
      <trkpt lat="43.30469" lon="3.08081">
        <ele>31.4</ele>
        <time>2022-05-19T10:58:37.116Z</time>
      </trkpt>
      <trkpt lat="43.30469" lon="3.08167">
        <ele>31.7</ele>
        <time>2022-05-19T10:58:50.628Z</time>
      </trkpt>
      <trkpt lat="43.30554" lon="3.08282">
        <ele>32</ele>
        <time>2022-05-19T10:59:15.831Z</time>
      </trkpt>
      <trkpt lat="43.30563" lon="3.08476">
        <ele>33.2</ele>
        <time>2022-05-19T10:59:47.492Z</time>
      </trkpt>
      <trkpt lat="43.30544" lon="3.08643">
        <ele>32.9</ele>
        <time>2022-05-19T11:00:11.968Z</time>
      </trkpt>
      <trkpt lat="43.30482" lon="3.08784">
        <ele>30.8</ele>
        <time>2022-05-19T11:00:28.631Z</time>
      </trkpt>
      <trkpt lat="43.30441" lon="3.09021">
        <ele>32.8</ele>
        <time>2022-05-19T11:01:09.442Z</time>
      </trkpt>
      <trkpt lat="43.30441" lon="3.09179">
        <ele>30.6</ele>
        <time>2022-05-19T11:01:25.118Z</time>
      </trkpt>
      <trkpt lat="43.30532" lon="3.09308">
        <ele>33.3</ele>
        <time>2022-05-19T11:01:58.402Z</time>
      </trkpt>
      <trkpt lat="43.3055" lon="3.09527">
        <ele>31.2</ele>
        <time>2022-05-19T11:02:21.952Z</time>
      </trkpt>
      <trkpt lat="43.30522" lon="3.09793">
        <ele>31.6</ele>
        <time>2022-05-19T11:03:03.096Z</time>
      </trkpt>
      <trkpt lat="43.30516" lon="3.09956">
        <ele>31.9</ele>
        <time>2022-05-19T11:03:28.193Z</time>
      </trkpt>
      <trkpt lat="43.30532" lon="3.10196">
        <ele>32.4</ele>
        <time>2022-05-19T11:04:05.367Z</time>
      </trkpt>
      <trkpt lat="43.30532" lon="3.10329">
        <ele>32.3</ele>
        <time>2022-05-19T11:04:25.034Z</time>
      </trkpt>
      <trkpt lat="43.30563" lon="3.10523">
        <ele>32.5</ele>
        <time>2022-05-19T11:04:55.253Z</time>
      </trkpt>
      <trkpt lat="43.30547" lon="3.11029">
        <ele>32.4</ele>
        <time>2022-05-19T11:06:11.019Z</time>
      </trkpt>
      <trkpt lat="43.30522" lon="3.11106">
        <ele>31.6</ele>
        <time>2022-05-19T11:06:20.035Z</time>
      </trkpt>
      <trkpt lat="43.30522" lon="3.11201">
        <ele>31.8</ele>
        <time>2022-05-19T11:06:34.694Z</time>
      </trkpt>
      <trkpt lat="43.30504" lon="3.11304">
        <ele>33.2</ele>
        <time>2022-05-19T11:06:53.781Z</time>
      </trkpt>
      <trkpt lat="43.30454" lon="3.11381">
        <ele>33.2</ele>
        <time>2022-05-19T11:07:09.283Z</time>
      </trkpt>
      <trkpt lat="43.30385" lon="3.11454">
        <ele>30.8</ele>
        <time>2022-05-19T11:07:20.077Z</time>
      </trkpt>
      <trkpt lat="43.30366" lon="3.11544">
        <ele>30.5</ele>
        <time>2022-05-19T11:07:33.266Z</time>
      </trkpt>
      <trkpt lat="43.30416" lon="3.11922">
        <ele>32</ele>
        <time>2022-05-19T11:08:33.962Z</time>
      </trkpt>
      <trkpt lat="43.30422" lon="3.12132">
        <ele>32.2</ele>
        <time>2022-05-19T11:09:05.915Z</time>
      </trkpt>
      <trkpt lat="43.30435" lon="3.12209">
        <ele>32.3</ele>
        <time>2022-05-19T11:09:17.981Z</time>
      </trkpt>
      <trkpt lat="43.30735" lon="3.12655">
        <ele>46.5</ele>
        <time>2022-05-19T11:11:27.259Z</time>
      </trkpt>
      <trkpt lat="43.30803" lon="3.12801">
        <ele>34</ele>
        <time>2022-05-19T11:11:39.267Z</time>
      </trkpt>
      <trkpt lat="43.30869" lon="3.13033">
        <ele>33.8</ele>
        <time>2022-05-19T11:12:16.062Z</time>
      </trkpt>
      <trkpt lat="43.31044" lon="3.13188">
        <ele>32.2</ele>
        <time>2022-05-19T11:12:48.900Z</time>
      </trkpt>
      <trkpt lat="43.31163" lon="3.13351">
        <ele>32.5</ele>
        <time>2022-05-19T11:13:24.158Z</time>
      </trkpt>
      <trkpt lat="43.31203" lon="3.13458">
        <ele>33</ele>
        <time>2022-05-19T11:13:43.224Z</time>
      </trkpt>
      <trkpt lat="43.313" lon="3.13462">
        <ele>32.6</ele>
        <time>2022-05-19T11:14:02.066Z</time>
      </trkpt>
      <trkpt lat="43.31387" lon="3.13514">
        <ele>32</ele>
        <time>2022-05-19T11:14:19.920Z</time>
      </trkpt>
      <trkpt lat="43.31434" lon="3.13557">
        <ele>32.1</ele>
        <time>2022-05-19T11:14:31.767Z</time>
      </trkpt>
      <trkpt lat="43.31509" lon="3.136">
        <ele>32.8</ele>
        <time>2022-05-19T11:14:49.979Z</time>
      </trkpt>
      <trkpt lat="43.3155" lon="3.13711">
        <ele>33.1</ele>
        <time>2022-05-19T11:15:09.260Z</time>
      </trkpt>
      <trkpt lat="43.31562" lon="3.13793">
        <ele>33.1</ele>
        <time>2022-05-19T11:15:21.822Z</time>
      </trkpt>
      <trkpt lat="43.31559" lon="3.13994">
        <ele>32.1</ele>
        <time>2022-05-19T11:15:49.154Z</time>
      </trkpt>
      <trkpt lat="43.31503" lon="3.14157">
        <ele>31.3</ele>
        <time>2022-05-19T11:16:13.913Z</time>
      </trkpt>
      <trkpt lat="43.31431" lon="3.14256">
        <ele>32.5</ele>
        <time>2022-05-19T11:16:37.480Z</time>
      </trkpt>
      <trkpt lat="43.31422" lon="3.14441">
        <ele>32.9</ele>
        <time>2022-05-19T11:17:06.105Z</time>
      </trkpt>
      <trkpt lat="43.31484" lon="3.14664">
        <ele>33.2</ele>
        <time>2022-05-19T11:17:42.537Z</time>
      </trkpt>
      <trkpt lat="43.316" lon="3.14883">
        <ele>32.8</ele>
        <time>2022-05-19T11:18:21.994Z</time>
      </trkpt>
      <trkpt lat="43.31659" lon="3.14951">
        <ele>32</ele>
        <time>2022-05-19T11:18:33.705Z</time>
      </trkpt>
      <trkpt lat="43.31937" lon="3.15046">
        <ele>33.2</ele>
        <time>2022-05-19T11:19:35.197Z</time>
      </trkpt>
      <trkpt lat="43.31984" lon="3.15102">
        <ele>32.9</ele>
        <time>2022-05-19T11:19:47.153Z</time>
      </trkpt>
      <trkpt lat="43.32003" lon="3.15282">
        <ele>33.4</ele>
        <time>2022-05-19T11:20:15.447Z</time>
      </trkpt>
      <trkpt lat="43.32062" lon="3.15368">
        <ele>32.9</ele>
        <time>2022-05-19T11:20:31.747Z</time>
      </trkpt>
      <trkpt lat="43.32287" lon="3.15587">
        <ele>32.6</ele>
        <time>2022-05-19T11:21:27.724Z</time>
      </trkpt>
      <trkpt lat="43.32299" lon="3.15737">
        <ele>34</ele>
        <time>2022-05-19T11:21:53.383Z</time>
      </trkpt>
      <trkpt lat="43.32174" lon="3.16114">
        <ele>33.4</ele>
        <time>2022-05-19T11:22:53.760Z</time>
      </trkpt>
      <trkpt lat="43.32174" lon="3.16235">
        <ele>32.1</ele>
        <time>2022-05-19T11:23:06.416Z</time>
      </trkpt>
      <trkpt lat="43.32234" lon="3.16406">
        <ele>32.9</ele>
        <time>2022-05-19T11:23:36.524Z</time>
      </trkpt>
      <trkpt lat="43.32308" lon="3.16518">
        <ele>32.8</ele>
        <time>2022-05-19T11:23:58.932Z</time>
      </trkpt>
      <trkpt lat="43.3234" lon="3.16582">
        <ele>31.8</ele>
        <time>2022-05-19T11:24:06.767Z</time>
      </trkpt>
      <trkpt lat="43.32337" lon="3.16758">
        <ele>31.1</ele>
        <time>2022-05-19T11:24:31.162Z</time>
      </trkpt>
      <trkpt lat="43.32383" lon="3.16973">
        <ele>31.9</ele>
        <time>2022-05-19T11:25:06.400Z</time>
      </trkpt>
      <trkpt lat="43.32433" lon="3.17097">
        <ele>32.5</ele>
        <time>2022-05-19T11:25:28.888Z</time>
      </trkpt>
      <trkpt lat="43.32568" lon="3.17093">
        <ele>31.7</ele>
        <time>2022-05-19T11:25:54.442Z</time>
      </trkpt>
      <trkpt lat="43.32686" lon="3.17046">
        <ele>31.5</ele>
        <time>2022-05-19T11:26:19.185Z</time>
      </trkpt>
      <trkpt lat="43.3273" lon="3.17123">
        <ele>30.8</ele>
        <time>2022-05-19T11:26:30.099Z</time>
      </trkpt>
      <trkpt lat="43.3273" lon="3.17359">
        <ele>32.9</ele>
        <time>2022-05-19T11:27:10.008Z</time>
      </trkpt>
      <trkpt lat="43.32824" lon="3.17698">
        <ele>34.7</ele>
        <time>2022-05-19T11:28:08.116Z</time>
      </trkpt>
      <trkpt lat="43.32802" lon="3.17861">
        <ele>34.1</ele>
        <time>2022-05-19T11:28:31.246Z</time>
      </trkpt>
      <trkpt lat="43.32761" lon="3.18011">
        <ele>34.2</ele>
        <time>2022-05-19T11:28:55.498Z</time>
      </trkpt>
      <trkpt lat="43.32661" lon="3.18805">
        <ele>31.4</ele>
        <time>2022-05-19T11:30:48.249Z</time>
      </trkpt>
      <trkpt lat="43.32752" lon="3.1893">
        <ele>33.2</ele>
        <time>2022-05-19T11:31:18.708Z</time>
      </trkpt>
      <trkpt lat="43.32899" lon="3.1917">
        <ele>33.1</ele>
        <time>2022-05-19T11:32:05.505Z</time>
      </trkpt>
      <trkpt lat="43.33051" lon="3.19217">
        <ele>33.2</ele>
        <time>2022-05-19T11:32:37.855Z</time>
      </trkpt>
      <trkpt lat="43.33064" lon="3.19303">
        <ele>32.6</ele>
        <time>2022-05-19T11:32:47.703Z</time>
      </trkpt>
      <trkpt lat="43.33055" lon="3.19432">
        <ele>32</ele>
        <time>2022-05-19T11:33:05.432Z</time>
      </trkpt>
      <trkpt lat="43.33002" lon="3.19809">
        <ele>31.2</ele>
        <time>2022-05-19T11:34:00.664Z</time>
      </trkpt>
      <trkpt lat="43.33023" lon="3.20058">
        <ele>26.2</ele>
        <time>2022-05-19T11:34:23.300Z</time>
      </trkpt>
      <trkpt lat="43.33086" lon="3.20573">
        <ele>17.8</ele>
        <time>2022-05-19T11:35:13.323Z</time>
      </trkpt>
      <trkpt lat="43.33298" lon="3.21007">
        <ele>14.7</ele>
        <time>2022-05-19T11:36:12.919Z</time>
      </trkpt>
      <trkpt lat="43.33545" lon="3.21427">
        <ele>18.1</ele>
        <time>2022-05-19T11:37:40.996Z</time>
      </trkpt>
      <trkpt lat="43.33517" lon="3.21582">
        <ele>16.8</ele>
        <time>2022-05-19T11:37:58.478Z</time>
      </trkpt>
      <trkpt lat="43.33348" lon="3.22131">
        <ele>12.7</ele>
        <time>2022-05-19T11:39:05.249Z</time>
      </trkpt>
      <trkpt lat="43.33295" lon="3.22393">
        <ele>10.4</ele>
        <time>2022-05-19T11:39:34.848Z</time>
      </trkpt>
      <trkpt lat="43.3327" lon="3.22603">
        <ele>10.4</ele>
        <time>2022-05-19T11:40:06.799Z</time>
      </trkpt>
      <trkpt lat="43.3307" lon="3.23002">
        <ele>10.6</ele>
        <time>2022-05-19T11:41:19.936Z</time>
      </trkpt>
      <trkpt lat="43.32952" lon="3.23153">
        <ele>10.5</ele>
        <time>2022-05-19T11:41:52.900Z</time>
      </trkpt>
    </trkseg>
  </trk>
</gpx>